Observation data for Silverton on 02/10/2018      Previous  Date       Current Mesonet Observations  Soil Data  Daily Summary Page  Observations in Plain Language
KSVS 100600Z 03009G14KT M03/M10 A30 RMK A01 T10331101  RH  060%=      5-min Rain = 0
KSVS 100605Z 03010KT M03/M10 A30 RMK A01 T10311100  RH  060%=      5-min Rain = 0
KSVS 100610Z 02009KT M03/M10 A3001 RMK A01 T10321100  RH  060%=      5-min Rain = 0
KSVS 100615Z 02008KT M03/M10 A3001 RMK A01 T10341100  RH  061%=      5-min Rain = 0
KSVS 100620Z 01009KT M04/M10 A3001 RMK A01 T10361100  RH  062%=      5-min Rain = 0
KSVS 100625Z 01011KT M04/M10 A3001 RMK A01 T10371101  RH  062%=      5-min Rain = 0
KSVS 100630Z 02011KT M04/M10 A3001 RMK A01 T10391104  RH  061%=      5-min Rain = 0
KSVS 100635Z 01013KT M04/M11 A3001 RMK A01 T10401106  RH  061%=      5-min Rain = 0
KSVS 100640Z 01014G19KT M04/M11 A3002 RMK A01 T10421107  RH  061%=      5-min Rain = 0
KSVS 100645Z 01013G19KT M04/M11 A3002 RMK A01 T10431108  RH  061%=      5-min Rain = 0
KSVS 100650Z 01015KT M04/M11 A3002 RMK A01 T10441109  RH  061%=      5-min Rain = 0
KSVS 100655Z 01015G20KT M05/M11 A3003 RMK A01 T10451109  RH  062%=      5-min Rain = 0
KSVS 100700Z 01013G18KT M05/M11 A3003 RMK A01 T10461110  RH  062%=      5-min Rain = 0
KSVS 100705Z 01014KT M05/M11 A3003 RMK A01 T10481110  RH  062%=      5-min Rain = 0
KSVS 100710Z 01013KT M05/M11 A3003 RMK A01 T10491111  RH  063%=      5-min Rain = 0
KSVS 100715Z 01012KT M05/M11 A3003 RMK A01 T10501111  RH  063%=      5-min Rain = 0
KSVS 100720Z 01015G20KT M05/M11 A3003 RMK A01 T10501111  RH  063%=      5-min Rain = 0
KSVS 100725Z 01014KT M05/M11 A3004 RMK A01 T10521113  RH  063%=      5-min Rain = 0
KSVS 100730Z 01013KT M05/M11 A3004 RMK A01 T10541114  RH  063%=      5-min Rain = 0
KSVS 100735Z 01012KT M06/M12 A3004 RMK A01 T10561116  RH  064%=      5-min Rain = 0
KSVS 100740Z 01015KT M06/M12 A3004 RMK A01 T10571116  RH  064%=      5-min Rain = 0
KSVS 100745Z 01015G20KT M06/M12 A3004 RMK A01 T10581118  RH  064%=      5-min Rain = 0
KSVS 100750Z 01017G22KT M06/M12 A3005 RMK A01 T10601119  RH  064%=      5-min Rain = 0
KSVS 100755Z 00016G21KT M06/M12 A3005 RMK A01 T10621120  RH  064%=      5-min Rain = 0
KSVS 100800Z 01015KT M06/M12 A3005 RMK A01 T10641121  RH  065%=      5-min Rain = 0
KSVS 100805Z 01015G21KT M07/M12 A3005 RMK A01 T10661122  RH  065%=      5-min Rain = 0
KSVS 100810Z 01017G23KT M07/M12 A3005 RMK A01 T10671122  RH  066%=      5-min Rain = 0
KSVS 100815Z 01016G22KT M07/M12 A3005 RMK A01 T10681122  RH  066%=      5-min Rain = 0
KSVS 100820Z 01015G22KT M07/M12 A3005 RMK A01 T10701123  RH  067%=      5-min Rain = 0
KSVS 100825Z 01016G21KT M07/M12 A3005 RMK A01 T10711123  RH  067%=      5-min Rain = 0
KSVS 100830Z 01016G22KT M07/M12 A3005 RMK A01 T10721123  RH  068%=      5-min Rain = 0
KSVS 100835Z 01017KT M07/M12 A3005 RMK A01 T10731124  RH  068%=      5-min Rain = 0
KSVS 100840Z 01016G21KT M07/M13 A3004 RMK A01 T10741125  RH  068%=      5-min Rain = 0
KSVS 100845Z 01018KT M08/M13 A3004 RMK A01 T10761125  RH  069%=      5-min Rain = 0
KSVS 100850Z 01018G24KT M08/M13 A3004 RMK A01 T10781126  RH  069%=      5-min Rain = 0
KSVS 100855Z 01016G21KT M08/M13 A3004 RMK A01 T10801127  RH  070%=      5-min Rain = 0
KSVS 100900Z 01018G24KT M08/M13 A3004 RMK A01 T10801126  RH  070%=      5-min Rain = 0
KSVS 100905Z 01018G25KT M08/M13 A3003 RMK A01 T10811127  RH  071%=      5-min Rain = 0
KSVS 100910Z 01019G25KT M08/M13 A3003 RMK A01 T10821127  RH  071%=      5-min Rain = 0
KSVS 100915Z 00018KT M08/M13 A3003 RMK A01 T10831127  RH  071%=      5-min Rain = 0
KSVS 100920Z 00018G23KT M08/M13 A3003 RMK A01 T10831127  RH  072%=      5-min Rain = 0
KSVS 100925Z 00018G23KT M08/M13 A3003 RMK A01 T10841127  RH  072%=      5-min Rain = 0
KSVS 100930Z 00016G21KT M09/M13 A3003 RMK A01 T10851127  RH  073%=      5-min Rain = 0
KSVS 100935Z 00018G23KT M09/M13 A3003 RMK A01 T10851126  RH  073%=      5-min Rain = 0
KSVS 100940Z 36018G24KT M09/M13 A3002 RMK A01 T10851126  RH  073%=      5-min Rain = 0
KSVS 100945Z 00016G23KT M09/M13 A3003 RMK A01 T10861126  RH  074%=      5-min Rain = 0
KSVS 100950Z 00017G23KT M09/M13 A3002 RMK A01 T10851125  RH  074%=      5-min Rain = 0
KSVS 100955Z 00016KT M09/M13 A3002 RMK A01 T10861126  RH  074%=      5-min Rain = 0
KSVS 101000Z 00016G21KT M09/M13 A3002 RMK A01 T10861126  RH  074%=      5-min Rain = 0
KSVS 101005Z 00016G21KT M09/M13 A3002 RMK A01 T10861125  RH  074%=      5-min Rain = 0
KSVS 101010Z 00015KT M09/M13 A3002 RMK A01 T10861125  RH  074%=      5-min Rain = 0
KSVS 101015Z 00016G23KT M09/M13 A3002 RMK A01 T10861125  RH  075%=      5-min Rain = 0
KSVS 101020Z 00015G21KT M09/M13 A3002 RMK A01 T10861125  RH  075%=      5-min Rain = 0
KSVS 101025Z 00015G21KT M09/M13 A3002 RMK A01 T10861125  RH  075%=      5-min Rain = 0
KSVS 101030Z 00014KT M09/M13 A3002 RMK A01 T10861125  RH  075%=      5-min Rain = 0
KSVS 101035Z 00017G22KT M09/M12 A3002 RMK A01 T10861124  RH  075%=      5-min Rain = 0
KSVS 101040Z 36016G22KT M09/M12 A3002 RMK A01 T10851124  RH  075%=      5-min Rain = 0
KSVS 101045Z 00014KT M09/M12 A3002 RMK A01 T10861124  RH  075%=      5-min Rain = 0
KSVS 101050Z 36016KT M09/M12 A3003 RMK A01 T10861123  RH  075%=      5-min Rain = 0
KSVS 101055Z 36013G19KT M09/M12 A3002 RMK A01 T10861124  RH  075%=      5-min Rain = 0
KSVS 101100Z 00013G18KT M09/M12 A3003 RMK A01 T10861124  RH  075%=      5-min Rain = 0
KSVS 101105Z 36011G16KT M09/M12 A3003 RMK A01 T10871124  RH  075%=      5-min Rain = 0
KSVS 101110Z 35013KT M09/M12 A3003 RMK A01 T10871124  RH  075%=      5-min Rain = 0
KSVS 101115Z 35011KT M09/M13 A3003 RMK A01 T10881125  RH  075%=      5-min Rain = 0
KSVS 101120Z 35013G19KT M09/M13 A3003 RMK A01 T10881125  RH  076%=      5-min Rain = 0
KSVS 101125Z 35012KT M09/M13 A3003 RMK A01 T10881125  RH  075%=      5-min Rain = 0
KSVS 101130Z 35012KT M09/M13 A3003 RMK A01 T10871125  RH  075%=      5-min Rain = 0
KSVS 101135Z 35012KT M09/M13 A3003 RMK A01 T10881126  RH  075%=      5-min Rain = 0
KSVS 101140Z 35012KT M09/M13 A3003 RMK A01 T10881126  RH  075%=      5-min Rain = 0
KSVS 101145Z 35013G18KT M09/M13 A3003 RMK A01 T10871126  RH  075%=      5-min Rain = 0
KSVS 101150Z 35015KT M09/M13 A3003 RMK A01 T10861126  RH  074%=      5-min Rain = 0
KSVS 101155Z 35014G19KT M09/M13 A3003 RMK A01 T10861126  RH  074%=      5-min Rain = 0
KSVS 101200Z 35013KT M09/M13 A3002 RMK A01 T10871127  RH  074%=      5-min Rain = 0
KSVS 101205Z 35014G19KT M09/M13 A3002 RMK A01 T10871127  RH  074%=      5-min Rain = 0
KSVS 101210Z 35014G19KT M09/M13 A3002 RMK A01 T10871127  RH  074%=      5-min Rain = 0
KSVS 101215Z 35012G17KT M09/M13 A3002 RMK A01 T10881127  RH  074%=      5-min Rain = 0
KSVS 101220Z 35013KT M09/M13 A3002 RMK A01 T10881127  RH  074%=      5-min Rain = 0
KSVS 101225Z 35014KT M09/M13 A3002 RMK A01 T10871126  RH  075%=      5-min Rain = 0
KSVS 101230Z 35013G18KT M09/M13 A3002 RMK A01 T10881126  RH  075%=      5-min Rain = 0
KSVS 101235Z 35014G19KT M09/M13 A3002 RMK A01 T10871125  RH  075%=      5-min Rain = 0
KSVS 101240Z 35013KT M09/M13 A3002 RMK A01 T10881126  RH  075%=      5-min Rain = 0
KSVS 101245Z 35012G17KT M09/M13 A3003 RMK A01 T10881126  RH  075%=      5-min Rain = 0
KSVS 101250Z 36014G19KT M09/M13 A3003 RMK A01 T10881125  RH  076%=      5-min Rain = 0
KSVS 101255Z 36012G17KT M09/M13 A3003 RMK A01 T10881126  RH  075%=      5-min Rain = 0
KSVS 101300Z 36012KT M09/M13 A3003 RMK A01 T10901127  RH  076%=      5-min Rain = 0
KSVS 101305Z 35012KT M09/M13 A3003 RMK A01 T10901126  RH  076%=      5-min Rain = 0
KSVS 101310Z 36012KT M09/M13 A3004 RMK A01 T10901126  RH  076%=      5-min Rain = 0
KSVS 101315Z 36011KT M09/M13 A3004 RMK A01 T10911127  RH  076%=      5-min Rain = 0
KSVS 101320Z 35012KT M09/M13 A3004 RMK A01 T10911126  RH  077%=      5-min Rain = 0
KSVS 101325Z 35012KT M09/M13 A3005 RMK A01 T10911127  RH  077%=      5-min Rain = 0
KSVS 101330Z 35012KT M09/M13 A3004 RMK A01 T10921127  RH  077%=      5-min Rain = 0
KSVS 101335Z 36013KT M09/M13 A3004 RMK A01 T10911126  RH  077%=      5-min Rain = 0
KSVS 101340Z 00011KT M09/M13 A3004 RMK A01 T10921127  RH  077%=      5-min Rain = 0
KSVS 101345Z 00011KT M09/M13 A3003 RMK A01 T10931127  RH  077%=      5-min Rain = 0
KSVS 101350Z 01011KT M09/M13 A3003 RMK A01 T10931127  RH  077%=      5-min Rain = 0
KSVS 101355Z 00010KT M09/M13 A3003 RMK A01 T10921127  RH  077%=      5-min Rain = 0
KSVS 101400Z 36010KT M09/M13 A3003 RMK A01 T10921126  RH  077%=      5-min Rain = 0
KSVS 101405Z 36010KT M09/M13 A3004 RMK A01 T10911126  RH  077%=      5-min Rain = 0
KSVS 101410Z 36011KT M09/M13 A3004 RMK A01 T10891125  RH  076%=      5-min Rain = 0
KSVS 101415Z 35012KT M09/M13 A3004 RMK A01 T10891125  RH  076%=      5-min Rain = 0
KSVS 101420Z 36012G17KT M09/M12 A3004 RMK A01 T10871124  RH  075%=      5-min Rain = 0
KSVS 101425Z 35014KT M09/M13 A3004 RMK A01 T10861125  RH  074%=      5-min Rain = 0
KSVS 101430Z 36013KT M08/M13 A3004 RMK A01 T10841125  RH  074%=      5-min Rain = 0
KSVS 101435Z 35013G19KT M08/M12 A3004 RMK A01 T10821124  RH  073%=      5-min Rain = 0
KSVS 101440Z 35014KT M08/M12 A3004 RMK A01 T10811124  RH  072%=      5-min Rain = 0
KSVS 101445Z 35014KT M08/M12 A3004 RMK A01 T10791123  RH  072%=      5-min Rain = 0
KSVS 101450Z 35014KT M08/M12 A3004 RMK A01 T10771122  RH  071%=      5-min Rain = 0
KSVS 101455Z 35014G20KT M08/M12 A3004 RMK A01 T10771122  RH  071%=      5-min Rain = 0
KSVS 101500Z 35015G21KT M07/M12 A3005 RMK A01 T10741120  RH  071%=      5-min Rain = 0
KSVS 101505Z 35014G19KT M07/M12 A3004 RMK A01 T10741120  RH  071%=      5-min Rain = 0
KSVS 101510Z 36015KT M07/M12 A3004 RMK A01 T10721119  RH  070%=      5-min Rain = 0
KSVS 101515Z 35014KT M07/M12 A3004 RMK A01 T10711119  RH  070%=      5-min Rain = 0
KSVS 101520Z 35013KT M07/M12 A3005 RMK A01 T10701119  RH  069%=      5-min Rain = 0
KSVS 101525Z 34013KT M07/M12 A3005 RMK A01 T10701119  RH  069%=      5-min Rain = 0
KSVS 101530Z 36014KT M07/M12 A3005 RMK A01 T10701120  RH  068%=      5-min Rain = 0
KSVS 101535Z 00013KT M07/M12 A3005 RMK A01 T10701120  RH  069%=      5-min Rain = 0
KSVS 101540Z 36014KT M07/M12 A3004 RMK A01 T10691119  RH  068%=      5-min Rain = 0
KSVS 101545Z 36014KT M07/M12 A3004 RMK A01 T10691119  RH  068%=      5-min Rain = 0
KSVS 101550Z 36014KT M07/M12 A3004 RMK A01 T10681119  RH  068%=      5-min Rain = 0
KSVS 101555Z 36013G19KT M07/M12 A3004 RMK A01 T10691119  RH  068%=      5-min Rain = 0
KSVS 101600Z 35012KT M07/M12 A3003 RMK A01 T10661117  RH  068%=      5-min Rain = 0
KSVS 101605Z 35011G16KT M06/M12 A3003 RMK A01 T10641117  RH  067%=      5-min Rain = 0
KSVS 101610Z 00013KT M06/M12 A3003 RMK A01 T10621117  RH  066%=      5-min Rain = 0
KSVS 101615Z 00013KT M06/M12 A3003 RMK A01 T10631117  RH  067%=      5-min Rain = 0
KSVS 101620Z 00013KT M06/M12 A3003 RMK A01 T10611116  RH  066%=      5-min Rain = 0
KSVS 101625Z 00012KT M06/M11 A3002 RMK A01 T10571114  RH  065%=      5-min Rain = 0
KSVS 101630Z 36012G17KT M06/M12 A3002 RMK A01 T10591116  RH  065%=      5-min Rain = 0
KSVS 101635Z 35012G17KT M06/M12 A3003 RMK A01 T10611117  RH  065%=      5-min Rain = 0
KSVS 101640Z 35013KT M06/M12 A3003 RMK A01 T10621117  RH  066%=      5-min Rain = 0
KSVS 101645Z 35011G17KT M06/M12 A3003 RMK A01 T10581116  RH  065%=      5-min Rain = 0
KSVS 101650Z 34012G17KT M06/M12 A3003 RMK A01 T10591117  RH  064%=      5-min Rain = 0
KSVS 101655Z 34012KT M06/M12 A3003 RMK A01 T10561115  RH  064%=      5-min Rain = 0
KSVS 101700Z 34011KT M05/M11 A3003 RMK A01 T10531114  RH  063%=      5-min Rain = 0
KSVS 101705Z 35013KT M05/M12 A3003 RMK A01 T10541116  RH  062%=      5-min Rain = 0
KSVS 101710Z 36012G17KT M06/M12 A3003 RMK A01 T10551117  RH  063%=      5-min Rain = 0
KSVS 101715Z 35010KT M06/M12 A3003 RMK A01 T10571117  RH  063%=      5-min Rain = 0
KSVS 101720Z 35009G14KT M05/M12 A3002 RMK A01 T10531115  RH  063%=      5-min Rain = 0
KSVS 101725Z 00009G14KT M05/M12 A3002 RMK A01 T10511116  RH  061%=      5-min Rain = 0
KSVS 101730Z 36010G16KT M05/M12 A3002 RMK A01 T10541117  RH  062%=      5-min Rain = 0
KSVS 101735Z 00008KT M05/M11 A3001 RMK A01 T10491114  RH  061%=      5-min Rain = 0
KSVS 101740Z 00008KT M04/M11 A3001 RMK A01 T10421112  RH  059%=      5-min Rain = 0
KSVS 101745Z 36009KT M04/M11 A3001 RMK A01 T10431114  RH  058%=      5-min Rain = 0
KSVS 101750Z 02009KT M04/M11 A30 RMK A01 T10411114  RH  058%=      5-min Rain = 0
KSVS 101755Z 01009KT M05/M12 A30 RMK A01 T10481117  RH  059%=      5-min Rain = 0
KSVS 101800Z 36010KT M05/M12 A2999 RMK A01 T10471116  RH  059%=      5-min Rain = 0
KSVS 101805Z 35009KT M04/M12 A2999 RMK A01 T10421115  RH  058%=      5-min Rain = 0
KSVS 101810Z 00010G16KT M04/M12 A2999 RMK A01 T10411115  RH  057%=      5-min Rain = 0
KSVS 101815Z 01008KT M04/M12 A2998 RMK A01 T10411115  RH  057%=      5-min Rain = 0
KSVS 101820Z 02009KT M04/M12 A2998 RMK A01 T10351115  RH  055%=      5-min Rain = 0
KSVS 101825Z 02010G15KT M04/M12 A2998 RMK A01 T10351115  RH  055%=      5-min Rain = 0
KSVS 101830Z 01009G15KT M04/M12 A2998 RMK A01 T10371115  RH  056%=      5-min Rain = 0
KSVS 101835Z 35009KT M03/M12 A2998 RMK A01 T10331115  RH  054%=      5-min Rain = 0
KSVS 101840Z 35011G16KT M03/M12 A2998 RMK A01 T10301115  RH  053%=      5-min Rain = 0
KSVS 101845Z 34009KT M03/M12 A2998 RMK A01 T10321115  RH  053%=      5-min Rain = 0
KSVS 101850Z 35007G14KT M03/M12 A2997 RMK A01 T10311115  RH  053%=      5-min Rain = 0
KSVS 101855Z 00008KT M02/M11 A2996 RMK A01 T10241112  RH  052%=      5-min Rain = 0
KSVS 101900Z 01006KT M02/M11 A2996 RMK A01 T10241114  RH  051%=      5-min Rain = 0
KSVS 101905Z 01006G11KT M02/M11 A2995 RMK A01 T10221112  RH  051%=      5-min Rain = 0
KSVS 101910Z 03007KT M02/M11 A2995 RMK A01 T10191113  RH  049%=      5-min Rain = 0
KSVS 101915Z 01004KT M02/M11 A2994 RMK A01 T10191112  RH  050%=      5-min Rain = 0
KSVS 101920Z 03005KT M02/M11 A2993 RMK A01 T10161112  RH  049%=      5-min Rain = 0
KSVS 101925Z 03007G13KT M02/M12 A2993 RMK A01 T10181115  RH  048%=      5-min Rain = 0
KSVS 101930Z 06007G12KT M02/M11 A2992 RMK A01 T10221113  RH  050%=      5-min Rain = 0
KSVS 101935Z 05007G12KT M02/M11 A2992 RMK A01 T10201113  RH  050%=      5-min Rain = 0
KSVS 101940Z 05007KT M01/M11 A2992 RMK A01 T10141111  RH  048%=      5-min Rain = 0
KSVS 101945Z 05007G14KT M02/M11 A2991 RMK A01 T10151112  RH  048%=      5-min Rain = 0
KSVS 101950Z 03006KT M01/M11 A2991 RMK A01 T10141112  RH  048%=      5-min Rain = 0
KSVS 101955Z 06006G11KT M02/M11 A299 RMK A01 T10151112  RH  048%=      5-min Rain = 0
KSVS 102000Z 05004KT M01/M11 A299 RMK A01 T10131111  RH  048%=      5-min Rain = 0
KSVS 102005Z 05005G10KT M02/M11 A299 RMK A01 T10181112  RH  049%=      5-min Rain = 0
KSVS 102010Z 03007KT M02/M11 A299 RMK A01 T10171111  RH  049%=      5-min Rain = 0
KSVS 102015Z 01005KT M02/M11 A299 RMK A01 T10181111  RH  050%=      5-min Rain = 0
KSVS 102020Z 05005G10KT M02/M11 A299 RMK A01 T10161111  RH  049%=      5-min Rain = 0
KSVS 102025Z 04006G11KT M01/M11 A2989 RMK A01 T10131109  RH  048%=      5-min Rain = 0
KSVS 102030Z 02005G10KT M01/M11 A299 RMK A01 T10111109  RH  048%=      5-min Rain = 0
KSVS 102035Z 00006KT M01/M11 A2989 RMK A01 T10091110  RH  047%=      5-min Rain = 0
KSVS 102040Z 02005KT M01/M11 A299 RMK A01 T10071109  RH  047%=      5-min Rain = 0
KSVS 102045Z 03007KT M01/M11 A2989 RMK A01 T10121112  RH  047%=      5-min Rain = 0
KSVS 102050Z 35004KT M02/M11 A2989 RMK A01 T10171112  RH  049%=      5-min Rain = 0
KSVS 102055Z 00005KT M02/M11 A2989 RMK A01 T10171110  RH  050%=      5-min Rain = 0
KSVS 102100Z 02007KT M01/M11 A2989 RMK A01 T10131110  RH  048%=      5-min Rain = 0
KSVS 102105Z 34005KT M01/M11 A2989 RMK A01 T10131110  RH  048%=      5-min Rain = 0
KSVS 102110Z 02007KT M01/M11 A2989 RMK A01 T10121109  RH  048%=      5-min Rain = 0
KSVS 102115Z 03006KT M01/M11 A2989 RMK A01 T10101110  RH  047%=      5-min Rain = 0
KSVS 102120Z 01007G12KT M01/M11 A2989 RMK A01 T10121110  RH  048%=      5-min Rain = 0
KSVS 102125Z 01007KT M01/M11 A2989 RMK A01 T10131110  RH  048%=      5-min Rain = 0
KSVS 102130Z 02006G11KT M01/M11 A2988 RMK A01 T10081108  RH  047%=      5-min Rain = 0
KSVS 102135Z 04005KT M01/M11 A2988 RMK A01 T10101110  RH  047%=      5-min Rain = 0
KSVS 102140Z 02004KT M02/M11 A2988 RMK A01 T10151111  RH  049%=      5-min Rain = 0
KSVS 102145Z 02003KT M01/M11 A2988 RMK A01 T10101108  RH  048%=      5-min Rain = 0
KSVS 102150Z 05005KT M01/M11 A2988 RMK A01 T10101109  RH  047%=      5-min Rain = 0
KSVS 102155Z 02003KT M01/M11 A2988 RMK A01 T10131110  RH  049%=      5-min Rain = 0
KSVS 102200Z 00004KT M01/M11 A2988 RMK A01 T10111109  RH  048%=      5-min Rain = 0
KSVS 102205Z 06002KT M01/M11 A2988 RMK A01 T10131109  RH  049%=      5-min Rain = 0
KSVS 102210Z 03003KT M01/M11 A2988 RMK A01 T10121108  RH  049%=      5-min Rain = 0
KSVS 102215Z 02004KT M01/M11 A2988 RMK A01 T10121108  RH  049%=      5-min Rain = 0
KSVS 102220Z 04003KT M01/M11 A2987 RMK A01 T10111108  RH  048%=      5-min Rain = 0
KSVS 102225Z 04003KT M01/M11 A2987 RMK A01 T10111108  RH  048%=      5-min Rain = 0
KSVS 102230Z 03004KT M01/M11 A2986 RMK A01 T10131108  RH  049%=      5-min Rain = 0
KSVS 102235Z 08005KT M01/M11 A2986 RMK A01 T10121108  RH  049%=      5-min Rain = 0
KSVS 102240Z 05003KT M02/M11 A2986 RMK A01 T10161109  RH  050%=      5-min Rain = 0
KSVS 102245Z 04003KT M02/M11 A2986 RMK A01 T10161108  RH  050%=      5-min Rain = 0
KSVS 102250Z 06004KT M01/M11 A2986 RMK A01 T10141108  RH  049%=      5-min Rain = 0
KSVS 102255Z 06002KT M02/M11 A2985 RMK A01 T10151109  RH  050%=      5-min Rain = 0
KSVS 102300Z 02002KT M02/M11 A2986 RMK A01 T10161108  RH  050%=      5-min Rain = 0
KSVS 102305Z 03003KT M02/M11 A2986 RMK A01 T10161108  RH  050%=      5-min Rain = 0
KSVS 102310Z 03003KT M01/M11 A2986 RMK A01 T10141108  RH  050%=      5-min Rain = 0
KSVS 102315Z 01003KT M01/M11 A2987 RMK A01 T10131107  RH  049%=      5-min Rain = 0
KSVS 102320Z 02004KT M01/M11 A2986 RMK A01 T10101107  RH  048%=      5-min Rain = 0
KSVS 102325Z 03005KT M01/M11 A2986 RMK A01 T10091107  RH  048%=      5-min Rain = 0
KSVS 102330Z 03004KT M01/M11 A2986 RMK A01 T10111108  RH  048%=      5-min Rain = 0
KSVS 102335Z 05005KT M01/M11 A2985 RMK A01 T10101108  RH  048%=      5-min Rain = 0
KSVS 102340Z 04004KT M01/M11 A2985 RMK A01 T10131109  RH  049%=      5-min Rain = 0
KSVS 102345Z 02005KT M01/M11 A2985 RMK A01 T10141108  RH  049%=      5-min Rain = 0
KSVS 102350Z 02005KT M02/M11 A2986 RMK A01 T10151109  RH  049%=      5-min Rain = 0
KSVS 102355Z 03005KT M02/M11 A2985 RMK A01 T10191110  RH  050%=      5-min Rain = 0
KSVS 110000Z 02006KT M02/M11 A2986 RMK A01 T10241112  RH  052%=      5-min Rain = 0
KSVS 110005Z 03006KT M03/M11 A2987 RMK A01 T10281113  RH  053%=      5-min Rain = 0
KSVS 110010Z 05006KT M03/M11 A2987 RMK A01 T10291113  RH  053%=      5-min Rain = 0
KSVS 110015Z 05006KT M03/M11 A2988 RMK A01 T10311114  RH  053%=      5-min Rain = 0
KSVS 110020Z 06006KT M03/M12 A2987 RMK A01 T10341116  RH  054%=      5-min Rain = 0
KSVS 110025Z 05006KT M04/M12 A2987 RMK A01 T10381118  RH  054%=      5-min Rain = 0
KSVS 110030Z 06006KT M04/M12 A2987 RMK A01 T10421120  RH  055%=      5-min Rain = 0
KSVS 110035Z 06006KT M04/M12 A2987 RMK A01 T10421119  RH  056%=      5-min Rain = 0
KSVS 110040Z 05007KT M04/M12 A2987 RMK A01 T10421119  RH  056%=      5-min Rain = 0
KSVS 110045Z 05007KT M04/M12 A2988 RMK A01 T10421118  RH  056%=      5-min Rain = 0
KSVS 110050Z 05007KT M04/M12 A2988 RMK A01 T10431119  RH  056%=      5-min Rain = 0
KSVS 110055Z 05007KT M04/M12 A2988 RMK A01 T10441118  RH  057%=      5-min Rain = 0
KSVS 110100Z 05007KT M05/M12 A2989 RMK A01 T10451119  RH  057%=      5-min Rain = 0
KSVS 110105Z 05007KT M05/M12 A2989 RMK A01 T10471119  RH  058%=      5-min Rain = 0
KSVS 110110Z 05007KT M05/M12 A2989 RMK A01 T10491119  RH  059%=      5-min Rain = 0
KSVS 110115Z 05006KT M05/M12 A299 RMK A01 T10491118  RH  059%=      5-min Rain = 0
KSVS 110120Z 05006KT M05/M12 A299 RMK A01 T10521120  RH  060%=      5-min Rain = 0
KSVS 110125Z 05007KT M05/M12 A299 RMK A01 T10531120  RH  060%=      5-min Rain = 0
KSVS 110130Z 05006KT M05/M12 A2991 RMK A01 T10521119  RH  060%=      5-min Rain = 0
KSVS 110135Z 04007KT M05/M12 A2991 RMK A01 T10511118  RH  060%=      5-min Rain = 0
KSVS 110140Z 06009KT M05/M12 A2991 RMK A01 T10491117  RH  060%=      5-min Rain = 0
KSVS 110145Z 05010KT M05/M12 A2992 RMK A01 T10471118  RH  058%=      5-min Rain = 0
KSVS 110150Z 04009KT M05/M12 A2993 RMK A01 T10481120  RH  058%=      5-min Rain = 0
KSVS 110155Z 04011KT M05/M12 A2993 RMK A01 T10491121  RH  058%=      5-min Rain = 0
KSVS 110200Z 04010KT M05/M12 A2994 RMK A01 T10491122  RH  058%=      5-min Rain = 0
KSVS 110205Z 03010KT M05/M12 A2994 RMK A01 T10511123  RH  058%=      5-min Rain = 0
KSVS 110210Z 02012G17KT M05/M12 A2994 RMK A01 T10521124  RH  058%=      5-min Rain = 0
KSVS 110215Z 01014KT M06/M13 A2995 RMK A01 T10581129  RH  058%=      5-min Rain = 0
KSVS 110220Z 01012KT M06/M13 A2995 RMK A01 T10611130  RH  059%=      5-min Rain = 0
KSVS 110225Z 01012G18KT M06/M13 A2995 RMK A01 T10631131  RH  059%=      5-min Rain = 0
KSVS 110230Z 01011G16KT M06/M13 A2996 RMK A01 T10641131  RH  060%=      5-min Rain = 0
KSVS 110235Z 01013G20KT M07/M13 A2996 RMK A01 T10651132  RH  060%=      5-min Rain = 0
KSVS 110240Z 01016KT M07/M13 A2996 RMK A01 T10681133  RH  061%=      5-min Rain = 0
KSVS 110245Z 01016KT M07/M13 A2997 RMK A01 T10711133  RH  062%=      5-min Rain = 0
KSVS 110250Z 01014G19KT M07/M13 A2997 RMK A01 T10721134  RH  063%=      5-min Rain = 0
KSVS 110255Z 01013G18KT M07/M13 A2997 RMK A01 T10741133  RH  063%=      5-min Rain = 0
KSVS 110300Z 01014KT M07/M13 A2997 RMK A01 T10741133  RH  064%=      5-min Rain = 0
KSVS 110305Z 01013G18KT M08/M13 A2997 RMK A01 T10751133  RH  064%=      5-min Rain = 0
KSVS 110310Z 02014G19KT M08/M13 A2997 RMK A01 T10751133  RH  064%=      5-min Rain = 0
KSVS 110315Z 01013KT M08/M13 A2997 RMK A01 T10751133  RH  064%=      5-min Rain = 0
KSVS 110320Z 01012KT M08/M13 A2998 RMK A01 T10761133  RH  065%=      5-min Rain = 0
KSVS 110325Z 02009KT M08/M13 A2998 RMK A01 T10781134  RH  065%=      5-min Rain = 0
KSVS 110330Z 02009KT M08/M13 A2998 RMK A01 T10791134  RH  066%=      5-min Rain = 0
KSVS 110335Z 01009KT M08/M13 A2998 RMK A01 T10801133  RH  066%=      5-min Rain = 0
KSVS 110340Z 01009KT M08/M13 A2998 RMK A01 T10801133  RH  067%=      5-min Rain = 0
KSVS 110345Z 01011KT M08/M13 A2999 RMK A01 T10801132  RH  067%=      5-min Rain = 0
KSVS 110350Z 01008KT M08/M13 A2999 RMK A01 T10801132  RH  067%=      5-min Rain = 0
KSVS 110355Z 01010KT M08/M13 A2999 RMK A01 T10801131  RH  068%=      5-min Rain = 0
KSVS 110400Z 01010KT M08/M13 A2999 RMK A01 T10811131  RH  068%=      5-min Rain = 0
KSVS 110405Z 01012KT M08/M13 A2999 RMK A01 T10801131  RH  068%=      5-min Rain = 0
KSVS 110410Z 01012KT M08/M13 A2999 RMK A01 T10801131  RH  067%=      5-min Rain = 0
KSVS 110415Z 01010KT M08/M13 A30 RMK A01 T10801132  RH  067%=      5-min Rain = 0
KSVS 110420Z 01010KT M08/M13 A30 RMK A01 T10811132  RH  068%=      5-min Rain = 0
KSVS 110425Z 01010KT M08/M13 A30 RMK A01 T10821133  RH  068%=      5-min Rain = 0
KSVS 110430Z 02010KT M08/M13 A30 RMK A01 T10821133  RH  068%=      5-min Rain = 0
KSVS 110435Z 01009KT M08/M13 A30 RMK A01 T10841134  RH  068%=      5-min Rain = 0
KSVS 110440Z 01010KT M09/M13 A30 RMK A01 T10851134  RH  069%=      5-min Rain = 0
KSVS 110445Z 01009KT M09/M14 A3001 RMK A01 T10851135  RH  068%=      5-min Rain = 0
KSVS 110450Z 01011G16KT M09/M14 A3001 RMK A01 T10861136  RH  068%=      5-min Rain = 0
KSVS 110455Z 01010G15KT M09/M14 A3001 RMK A01 T10861136  RH  068%=      5-min Rain = 0
KSVS 110500Z 00009KT M09/M14 A3001 RMK A01 T10871137  RH  068%=      5-min Rain = 0
KSVS 110505Z 00011G16KT M09/M14 A3002 RMK A01 T10871137  RH  068%=      5-min Rain = 0
KSVS 110510Z 36010KT M09/M14 A3002 RMK A01 T10881138  RH  068%=      5-min Rain = 0
KSVS 110515Z 00012G17KT M09/M14 A3002 RMK A01 T10881138  RH  068%=      5-min Rain = 0
KSVS 110520Z 01010KT M09/M14 A3002 RMK A01 T10881138  RH  068%=      5-min Rain = 0
KSVS 110525Z 01009G14KT M09/M14 A3002 RMK A01 T10891139  RH  068%=      5-min Rain = 0
KSVS 110530Z 00010KT M09/M14 A3003 RMK A01 T10891138  RH  068%=      5-min Rain = 0
KSVS 110535Z 01009G14KT M09/M14 A3003 RMK A01 T10901139  RH  069%=      5-min Rain = 0
KSVS 110540Z 01008KT M09/M14 A3003 RMK A01 T10911140  RH  069%=      5-min Rain = 0
KSVS 110545Z 36008KT M09/M14 A3003 RMK A01 T10911139  RH  069%=      5-min Rain = 0
KSVS 110550Z 00008KT M09/M14 A3003 RMK A01 T10921140  RH  069%=      5-min Rain = 0
KSVS 110555Z 00007KT M09/M14 A3004 RMK A01 T10931140  RH  070%=      5-min Rain = 0

Page generated in 0.016 seconds.